Gaston, Indiana
Current Conditions -  °F | °C
As of 1:53 AM on Saturday 29 Nov 2014 (Local Time) from KMIE Reporting Station
Clear Clear  
Wind Chill: 24°   Ceiling: Unl
Heat Index: 34°   Visibility: 10mi
Dew Point: 20°   Wind: 15mph
Humidity: 56%   Direction: 190°S
Pressure: 29.98"   Gusts: NA
Location:  40.31°N, 85.5°W
Report Text: KMIE 290653Z AUTO 19013KT 10SM CLR 01/M07 A2998 RMK AO2 SLP159 T00111067
Loading
Personal Weather Stations






























Interactive Weather Map New forecast layout! Learn more

10-Day Weather Forecast

Advertisements
Track Severe Weather on mobile